Time;durP1;ratioP1;P1;durP2;ratioP2;P2;SDS_P1;SDS_P2;PMS_P1;PMS_P2;Temp;Humidity;BMP_temperature;BMP_pressure;BME280_temperature;BME280_humidity;BME280_pressure;Samples;Min_cycle;Max_cycle;Signal;HPM_P1;HPM_P2
2022/07/14 00:02:23;;;;;;;6.90;4.15;;;21.40;99.90;;;;;;5051342;28;20214;-69
2022/07/14 00:04:51;;;;;;;6.93;4.50;;;21.40;99.90;;;;;;5052187;28;20206;-70
2022/07/14 00:07:17;;;;;;;10.65;4.25;;;21.40;99.90;;;;;;5052606;28;20677;-70
2022/07/14 00:09:44;;;;;;;10.38;4.32;;;21.30;99.90;;;;;;5051212;28;20206;-70
2022/07/14 00:12:11;;;;;;;9.93;5.38;;;21.30;99.90;;;;;;5049480;28;20210;-69
2022/07/14 00:14:38;;;;;;;4.97;3.60;;;21.30;99.90;;;;;;5039630;28;20213;-71
2022/07/14 00:17:04;;;;;;;5.80;4.13;;;21.30;99.90;;;;;;5048243;28;20218;-69
2022/07/14 00:19:31;;;;;;;4.25;3.58;;;21.30;99.90;;;;;;5050748;28;20218;-70
2022/07/14 00:21:59;;;;;;;4.45;3.60;;;21.20;99.90;;;;;;5052897;28;20205;-70
2022/07/14 00:24:26;;;;;;;6.68;4.28;;;21.20;99.90;;;;;;5052051;28;20217;-70
2022/07/14 00:26:53;;;;;;;4.97;3.55;;;21.20;99.90;;;;;;5049748;28;20221;-69
2022/07/14 00:29:20;;;;;;;7.65;4.20;;;21.10;99.90;;;;;;5052079;28;20209;-69
2022/07/14 00:31:47;;;;;;;5.35;4.03;;;21.10;99.90;;;;;;5052453;28;20259;-70
2022/07/14 00:34:14;;;;;;;5.90;4.00;;;21.10;99.90;;;;;;5051302;28;20600;-69
2022/07/14 00:36:41;;;;;;;6.03;3.85;;;21.00;99.90;;;;;;5052137;28;20583;-70
2022/07/14 00:39:09;;;;;;;4.20;3.75;;;21.00;99.90;;;;;;5051481;28;20535;-70
2022/07/14 00:41:36;;;;;;;5.47;3.60;;;20.90;99.90;;;;;;5051443;28;20226;-70
2022/07/14 00:44:03;;;;;;;6.00;3.60;;;20.90;99.90;;;;;;5052340;28;20205;-70
2022/07/14 00:46:30;;;;;;;5.82;3.83;;;20.80;99.90;;;;;;5041375;28;20265;-70
2022/07/14 00:48:56;;;;;;;5.65;4.38;;;20.80;99.90;;;;;;5054879;28;20199;-70
2022/07/14 00:51:23;;;;;;;4.05;3.50;;;20.80;99.90;;;;;;5054742;28;20206;-70
2022/07/14 00:53:55;;;;;;;8.25;4.20;;;20.70;99.90;;;;;;5054619;28;20216;-70
2022/07/14 00:56:24;;;;;;;6.07;4.22;;;20.70;99.90;;;;;;5055044;28;20218;-70
2022/07/14 00:58:50;;;;;;;5.07;3.80;;;20.70;99.90;;;;;;5055830;28;20221;-70
2022/07/14 01:01:17;;;;;;;5.55;3.78;;;20.60;99.90;;;;;;5053907;28;20572;-70
2022/07/14 01:03:44;;;;;;;5.40;3.33;;;20.60;99.90;;;;;;5055728;28;20206;-69
2022/07/14 01:06:10;;;;;;;5.90;3.83;;;20.50;99.90;;;;;;5056160;28;20202;-70
2022/07/14 01:08:37;;;;;;;4.40;3.97;;;20.50;99.90;;;;;;5045978;28;20209;-69
2022/07/14 01:11:07;;;;;;;5.57;4.63;;;20.50;99.90;;;;;;5054827;28;20210;-70
2022/07/14 01:13:36;;;;;;;5.97;4.57;;;20.50;99.90;;;;;;5055602;28;20210;-70
2022/07/14 01:16:04;;;;;;;5.50;3.92;;;20.40;99.90;;;;;;5055609;28;20229;-70
2022/07/14 01:18:31;;;;;;;9.15;4.25;;;20.40;99.90;;;;;;5049817;28;20217;-70
2022/07/14 01:20:58;;;;;;;5.05;4.15;;;20.30;99.90;;;;;;5053459;28;20216;-69
2022/07/14 01:23:26;;;;;;;7.47;4.28;;;20.30;99.90;;;;;;5054855;28;20221;-70
2022/07/14 01:25:53;;;;;;;5.53;4.13;;;20.20;99.90;;;;;;5055313;28;20221;-70
2022/07/14 01:28:19;;;;;;;5.15;4.65;;;20.20;99.90;;;;;;5054241;28;20696;-69
2022/07/14 01:30:46;;;;;;;4.60;4.20;;;20.10;99.90;;;;;;5054526;28;20659;-71
2022/07/14 01:33:13;;;;;;;6.60;4.40;;;20.10;99.90;;;;;;5055339;28;20202;-70
2022/07/14 01:35:40;;;;;;;5.13;4.63;;;20.10;99.90;;;;;;5055833;28;20214;-70
2022/07/14 01:38:06;;;;;;;5.90;4.40;;;20.10;99.90;;;;;;5053261;28;20233;-70
2022/07/14 01:40:34;;;;;;;5.45;4.90;;;20.00;99.90;;;;;;5054560;28;20564;-70
2022/07/14 01:43:01;;;;;;;9.85;5.35;;;20.00;99.90;;;;;;5053805;28;20213;-69
2022/07/14 01:45:28;;;;;;;6.20;4.88;;;20.00;99.90;;;;;;5054504;28;20614;-70
2022/07/14 01:47:54;;;;;;;11.15;5.10;;;19.90;99.90;;;;;;5055106;28;20202;-70
2022/07/14 01:50:21;;;;;;;5.82;4.80;;;19.90;99.90;;;;;;5052950;28;20209;-70
2022/07/14 01:52:48;;;;;;;8.00;4.57;;;19.80;99.90;;;;;;5053576;28;20213;-70
2022/07/14 01:55:15;;;;;;;5.43;4.93;;;19.80;99.90;;;;;;5054789;28;20225;-70
2022/07/14 01:57:43;;;;;;;4.90;4.40;;;19.80;99.90;;;;;;5054544;28;20226;-70
2022/07/14 02:00:10;;;;;;;5.82;4.40;;;19.80;99.90;;;;;;5053193;28;20217;-71
2022/07/14 02:02:37;;;;;;;5.32;4.82;;;19.80;99.90;;;;;;5054228;28;20214;-70
2022/07/14 02:05:05;;;;;;;7.22;4.35;;;19.70;99.90;;;;;;5054898;28;20674;-70
2022/07/14 02:07:31;;;;;;;5.78;4.35;;;19.70;99.90;;;;;;5053590;28;20206;-69
2022/07/14 02:12:43;;;;;;;4.80;4.32;;;19.70;99.90;;;;;;5042269;28;20196;-70
2022/07/14 02:15:11;;;;;;;5.70;4.20;;;19.70;99.90;;;;;;5054186;28;20210;-70
2022/07/14 02:17:37;;;;;;;5.03;4.50;;;19.60;99.90;;;;;;5052463;28;20217;-70
2022/07/14 02:20:05;;;;;;;8.13;4.93;;;19.60;99.90;;;;;;5049361;28;20202;-70
2022/07/14 02:22:32;;;;;;;5.63;4.63;;;19.60;99.90;;;;;;5048862;28;20210;-70
2022/07/14 02:24:59;;;;;;;5.28;4.78;;;19.60;99.90;;;;;;5053432;28;20222;-70
2022/07/14 02:27:26;;;;;;;4.90;4.40;;;19.50;99.90;;;;;;5053887;28;20214;-70
2022/07/14 02:29:54;;;;;;;5.70;4.70;;;19.50;99.90;;;;;;5054318;28;20674;-70
2022/07/14 02:32:21;;;;;;;5.35;4.72;;;19.50;99.90;;;;;;5053665;28;20757;-70
2022/07/14 02:34:48;;;;;;;6.85;5.13;;;19.50;99.90;;;;;;5051066;28;20216;-70
2022/07/14 02:37:15;;;;;;;5.18;4.68;;;19.40;99.90;;;;;;5053543;28;20229;-71
2022/07/14 02:39:41;;;;;;;5.18;4.45;;;19.40;99.90;;;;;;5054525;28;20205;-70
2022/07/14 02:42:08;;;;;;;5.40;4.90;;;19.40;99.90;;;;;;5053483;28;20206;-70
2022/07/14 02:44:35;;;;;;;5.68;4.43;;;19.40;99.90;;;;;;5053660;28;20216;-70
2022/07/14 02:47:03;;;;;;;5.78;4.45;;;19.40;99.90;;;;;;5053006;28;20670;-70
2022/07/14 02:49:30;;;;;;;6.53;4.70;;;19.40;99.90;;;;;;5053894;28;20217;-69
2022/07/14 02:51:56;;;;;;;5.50;4.90;;;19.40;99.90;;;;;;5052378;28;20643;-70
2022/07/14 02:54:23;;;;;;;4.82;4.05;;;19.40;99.90;;;;;;5053303;28;20206;-71
2022/07/14 02:56:50;;;;;;;5.45;4.82;;;19.40;99.90;;;;;;5054926;28;20218;-70
2022/07/14 02:59:17;;;;;;;6.47;5.10;;;19.40;99.90;;;;;;5054610;28;20221;-70
2022/07/14 03:01:43;;;;;;;4.97;4.57;;;19.40;99.90;;;;;;5054489;28;20597;-70
2022/07/14 03:04:11;;;;;;;4.93;4.53;;;19.40;99.90;;;;;;5052331;28;20212;-70
2022/07/14 03:06:38;;;;;;;6.43;4.78;;;19.40;99.90;;;;;;5053471;28;20205;-70
2022/07/14 03:09:05;;;;;;;9.50;4.75;;;19.40;99.90;;;;;;5051243;28;20653;-71
2022/07/14 03:11:32;;;;;;;5.68;4.38;;;19.40;99.90;;;;;;5054063;28;20209;-70
2022/07/14 03:13:59;;;;;;;7.18;5.07;;;19.40;99.90;;;;;;5052281;28;20210;-70
2022/07/14 03:16:26;;;;;;;7.35;4.97;;;19.40;99.90;;;;;;5053351;28;20206;-69
2022/07/14 03:18:53;;;;;;;4.85;4.43;;;19.40;99.90;;;;;;5040116;28;20306;-71
2022/07/14 03:21:22;;;;;;;5.45;4.88;;;19.40;99.90;;;;;;5039938;28;20590;-70
2022/07/14 03:23:49;;;;;;;5.90;4.90;;;19.40;99.90;;;;;;5050855;28;20708;-69
2022/07/14 03:26:16;;;;;;;7.25;4.70;;;19.40;99.90;;;;;;5052839;28;20230;-70
2022/07/14 03:28:43;;;;;;;5.65;4.70;;;19.40;99.90;;;;;;5053562;28;20205;-71
2022/07/14 03:31:10;;;;;;;6.18;4.85;;;19.40;99.90;;;;;;5053080;28;20206;-71
2022/07/14 03:33:36;;;;;;;6.57;5.13;;;19.40;99.90;;;;;;5051947;28;20597;-71
2022/07/14 03:36:03;;;;;;;6.80;5.07;;;19.40;99.90;;;;;;5053477;28;20214;-71
2022/07/14 03:38:31;;;;;;;7.22;4.80;;;19.40;99.90;;;;;;5052843;28;20245;-71
2022/07/14 03:41:02;;;;;;;7.30;4.82;;;19.40;99.90;;;;;;5052021;28;20213;-70
2022/07/14 03:43:28;;;;;;;7.25;4.90;;;19.40;99.90;;;;;;5053274;28;20206;-71
2022/07/14 03:45:55;;;;;;;7.78;4.53;;;19.40;99.90;;;;;;5052590;28;20245;-70
2022/07/14 03:48:22;;;;;;;5.53;4.63;;;19.40;99.90;;;;;;5052846;28;20643;-70
2022/07/14 03:50:49;;;;;;;8.30;4.95;;;19.40;99.90;;;;;;5052714;28;20259;-71
2022/07/14 03:53:16;;;;;;;5.50;5.00;;;19.50;99.90;;;;;;5053216;28;20595;-69
2022/07/14 03:55:45;;;;;;;6.60;5.00;;;19.50;99.90;;;;;;5049940;28;20202;-71
2022/07/14 03:58:12;;;;;;;5.65;5.05;;;19.50;99.90;;;;;;5053017;28;20233;-71
2022/07/14 04:00:38;;;;;;;6.68;4.82;;;19.50;99.90;;;;;;5053003;28;20646;-70
2022/07/14 04:03:05;;;;;;;5.32;4.82;;;19.60;99.90;;;;;;5051947;28;20202;-70
2022/07/14 04:05:32;;;;;;;6.60;4.55;;;19.60;99.90;;;;;;5050747;28;20206;-70
2022/07/14 04:07:59;;;;;;;7.28;5.13;;;19.70;99.90;;;;;;5053084;28;20650;-70
2022/07/14 04:10:26;;;;;;;6.75;5.28;;;19.60;99.90;;;;;;5052558;28;20252;-69
2022/07/14 04:12:56;;;;;;;8.10;4.70;;;19.70;99.90;;;;;;5051761;28;20217;-69
2022/07/14 04:15:23;;;;;;;7.40;5.20;;;19.70;99.90;;;;;;5049029;28;20241;-71
2022/07/14 04:17:49;;;;;;;6.80;5.20;;;19.70;99.90;;;;;;5044683;28;20205;-71
2022/07/14 04:20:17;;;;;;;4.90;4.47;;;19.70;99.90;;;;;;5040898;28;20202;-70
2022/07/14 04:22:44;;;;;;;5.80;4.50;;;19.80;99.90;;;;;;5051286;28;20249;-70
2022/07/14 04:25:12;;;;;;;5.50;4.55;;;19.80;99.90;;;;;;5047542;28;20226;-70
2022/07/14 04:27:39;;;;;;;6.38;4.25;;;19.80;99.90;;;;;;5056577;28;20210;-70
2022/07/14 04:30:09;;;;;;;4.60;4.15;;;19.90;99.90;;;;;;5056741;28;20205;-70
2022/07/14 04:32:35;;;;;;;6.47;4.80;;;20.00;99.90;;;;;;5053755;28;20224;-70
2022/07/14 04:35:03;;;;;;;9.57;4.70;;;20.00;99.90;;;;;;5056930;28;20210;-70
2022/07/14 04:37:30;;;;;;;5.75;4.78;;;20.10;99.90;;;;;;5054274;28;20228;-70
2022/07/14 04:39:57;;;;;;;5.30;4.47;;;20.10;99.90;;;;;;5056813;28;20234;-71
2022/07/14 04:42:24;;;;;;;5.00;4.00;;;20.20;99.90;;;;;;5056739;28;20205;-70
2022/07/14 04:44:51;;;;;;;4.45;4.05;;;20.20;99.90;;;;;;5056802;28;20205;-71
2022/07/14 04:47:19;;;;;;;5.93;4.30;;;20.30;99.90;;;;;;5051053;28;20546;-69
2022/07/14 04:52:30;;;;;;;4.50;4.10;;;20.40;99.90;;;;;;5056572;28;20200;-70
2022/07/14 04:54:57;;;;;;;4.53;3.92;;;20.40;99.90;;;;;;5056227;28;20213;-70
2022/07/14 04:57:24;;;;;;;4.65;4.18;;;20.50;99.90;;;;;;5055138;28;20206;-70
2022/07/14 04:59:51;;;;;;;5.68;4.28;;;20.60;99.90;;;;;;5056274;28;20233;-70
2022/07/14 05:02:19;;;;;;;4.40;4.00;;;20.60;99.90;;;;;;5052482;28;20212;-69
2022/07/14 05:04:45;;;;;;;5.43;4.20;;;20.70;99.90;;;;;;5047359;28;20568;-71
2022/07/14 05:07:12;;;;;;;6.20;3.97;;;20.70;99.90;;;;;;5054815;28;20273;-70
2022/07/14 05:09:39;;;;;;;6.47;3.85;;;20.70;99.90;;;;;;5056531;28;20212;-70
2022/07/14 05:12:07;;;;;;;6.32;4.15;;;20.80;99.90;;;;;;5041342;28;20282;-70
2022/07/14 05:14:34;;;;;;;7.30;4.00;;;20.80;99.90;;;;;;5049816;28;20226;-70
2022/07/14 05:17:01;;;;;;;4.95;3.42;;;20.80;99.90;;;;;;5048464;28;20585;-70
2022/07/14 05:19:29;;;;;;;3.92;3.55;;;20.90;99.90;;;;;;5052406;28;20312;-71
2022/07/14 05:21:56;;;;;;;4.10;3.70;;;20.90;99.90;;;;;;5050493;28;20202;-69
2022/07/14 05:24:23;;;;;;;3.50;3.20;;;21.00;99.90;;;;;;5041282;28;20206;-69
2022/07/14 05:26:49;;;;;;;4.07;3.67;;;21.00;99.90;;;;;;5055807;28;20234;-71
2022/07/14 05:29:16;;;;;;;5.93;3.30;;;21.10;99.90;;;;;;5055363;28;20202;-70
2022/07/14 05:31:43;;;;;;;4.72;3.33;;;21.20;99.90;;;;;;5054345;28;20211;-70
2022/07/14 05:34:10;;;;;;;4.53;3.63;;;21.20;99.90;;;;;;5055391;28;20205;-71
2022/07/14 05:36:38;;;;;;;4.32;3.92;;;21.30;99.90;;;;;;5049188;28;20234;-69
2022/07/14 05:39:05;;;;;;;5.25;3.35;;;21.30;99.90;;;;;;5052766;28;20556;-70
2022/07/14 05:41:32;;;;;;;4.30;3.47;;;21.40;99.90;;;;;;5055148;28;20669;-69
2022/07/14 05:43:58;;;;;;;6.18;2.85;;;21.40;99.90;;;;;;5055112;28;20209;-69
2022/07/14 05:46:25;;;;;;;3.15;2.83;;;21.50;99.90;;;;;;5054382;28;20238;-71
2022/07/14 05:48:52;;;;;;;3.15;2.70;;;21.60;99.90;;;;;;5054120;28;20206;-69
2022/07/14 05:51:20;;;;;;;5.20;3.05;;;21.60;99.90;;;;;;5055279;28;20213;-71
2022/07/14 05:53:49;;;;;;;3.03;2.60;;;21.70;99.90;;;;;;5052910;28;20380;-71
2022/07/14 05:56:17;;;;;;;4.00;2.63;;;21.70;99.90;;;;;;5054933;28;20209;-71
2022/07/14 05:58:45;;;;;;;3.22;2.92;;;21.80;99.90;;;;;;5054832;28;20735;-71
2022/07/14 06:01:13;;;;;;;5.32;3.00;;;21.80;99.90;;;;;;5054890;28;20214;-70
2022/07/14 06:03:40;;;;;;;4.00;2.63;;;21.90;99.90;;;;;;5055343;28;20684;-70
2022/07/14 06:06:09;;;;;;;2.95;2.50;;;21.90;99.90;;;;;;5045664;28;20206;-70
2022/07/14 06:08:37;;;;;;;2.78;2.30;;;21.90;99.90;;;;;;5056821;28;20213;-70
2022/07/14 06:11:06;;;;;;;2.72;2.53;;;22.00;99.90;;;;;;5054779;28;20206;-70
2022/07/14 06:13:33;;;;;;;3.15;2.85;;;22.00;99.90;;;;;;5054820;28;20218;-71
2022/07/14 06:16:01;;;;;;;2.55;2.35;;;22.00;99.90;;;;;;5050026;28;20233;-70
2022/07/14 06:18:28;;;;;;;7.18;3.15;;;22.10;99.90;;;;;;5052796;28;20209;-71
2022/07/14 06:20:55;;;;;;;3.05;2.22;;;22.10;99.90;;;;;;5051042;28;20217;-70
2022/07/14 06:23:21;;;;;;;4.07;2.25;;;22.10;99.90;;;;;;5053509;28;20214;-70
2022/07/14 06:25:48;;;;;;;3.30;3.00;;;22.20;99.90;;;;;;5046244;28;20222;-71
2022/07/14 06:28:17;;;;;;;4.07;2.22;;;22.20;99.90;;;;;;5050055;28;20216;-69
2022/07/14 06:30:45;;;;;;;3.47;2.60;;;22.20;99.90;;;;;;5048493;28;20205;-71
2022/07/14 06:33:12;;;;;;;4.50;2.70;;;22.20;99.90;;;;;;5046739;28;20206;-70
2022/07/14 06:35:39;;;;;;;2.72;2.22;;;22.30;99.90;;;;;;5055310;28;20590;-70
2022/07/14 06:38:06;;;;;;;2.53;2.33;;;22.30;99.90;;;;;;5054347;28;20206;-71
2022/07/14 06:40:33;;;;;;;3.08;2.00;;;22.30;99.90;;;;;;5054404;28;20237;-69
2022/07/14 06:43:00;;;;;;;2.33;2.10;;;22.30;99.90;;;;;;5052787;28;20234;-71
2022/07/14 06:45:28;;;;;;;2.25;1.90;;;22.40;99.90;;;;;;5040106;28;20218;-71
2022/07/14 06:47:55;;;;;;;2.33;2.13;;;22.40;99.90;;;;;;5052938;28;20206;-71
2022/07/14 06:50:22;;;;;;;2.92;2.15;;;22.50;99.90;;;;;;5049348;28;20207;-73
2022/07/14 06:52:49;;;;;;;1.92;1.83;;;22.50;99.90;;;;;;5053802;28;20300;-70
2022/07/14 06:55:16;;;;;;;1.83;1.70;;;22.60;99.90;;;;;;5053911;28;20209;-71
2022/07/14 06:57:43;;;;;;;3.28;1.90;;;22.60;99.90;;;;;;5052947;28;20214;-69
2022/07/14 07:00:11;;;;;;;3.63;2.00;;;22.60;99.90;;;;;;5050662;28;20229;-70
2022/07/14 07:02:40;;;;;;;3.63;1.90;;;22.60;99.90;;;;;;5052104;28;20288;-70
2022/07/14 07:07:51;;;;;;;3.30;1.55;;;22.70;99.90;;;;;;5046021;28;20198;-73
2022/07/14 07:10:19;;;;;;;1.90;1.80;;;22.70;99.90;;;;;;5043711;28;20650;-72
2022/07/14 07:12:45;;;;;;;3.35;1.70;;;22.80;99.90;;;;;;5054443;28;20647;-67
2022/07/14 07:15:12;;;;;;;4.45;1.83;;;22.90;99.90;;;;;;5049359;28;20570;-69
2022/07/14 07:17:41;;;;;;;2.40;1.85;;;23.00;99.90;;;;;;5044167;28;20221;-70
2022/07/14 07:20:10;;;;;;;2.88;1.83;;;23.10;99.90;;;;;;5051493;28;20229;-69
2022/07/14 07:22:36;;;;;;;1.85;1.75;;;23.20;99.90;;;;;;5052858;28;20206;-70
2022/07/14 07:25:04;;;;;;;5.00;2.42;;;23.30;99.90;;;;;;5053139;28;20229;-70
2022/07/14 07:27:31;;;;;;;3.67;1.90;;;23.40;99.90;;;;;;5051645;28;20388;-69
2022/07/14 07:29:59;;;;;;;6.65;2.45;;;23.40;99.90;;;;;;5043696;28;20198;-70
2022/07/14 07:32:26;;;;;;;3.67;1.80;;;23.50;99.90;;;;;;5053748;28;20206;-71
2022/07/14 07:34:54;;;;;;;3.08;2.13;;;23.60;99.90;;;;;;5042417;28;20241;-71
2022/07/14 07:37:21;;;;;;;3.10;2.28;;;23.60;99.90;;;;;;5046997;28;20265;-70
2022/07/14 07:39:48;;;;;;;4.15;1.77;;;23.60;99.90;;;;;;5048556;28;20222;-70
2022/07/14 07:42:15;;;;;;;4.43;2.30;;;23.70;99.90;;;;;;5055646;28;20202;-70
2022/07/14 07:44:42;;;;;;;4.38;2.10;;;23.80;99.90;;;;;;5053960;28;20216;-70
2022/07/14 07:47:08;;;;;;;3.88;2.40;;;23.90;99.90;;;;;;5046589;28;20328;-70
2022/07/14 07:49:35;;;;;;;3.53;2.13;;;24.00;99.90;;;;;;5044612;28;20194;-69
2022/07/14 07:52:04;;;;;;;2.40;1.58;;;24.00;99.90;;;;;;5049206;28;20206;-72
2022/07/14 07:54:31;;;;;;;2.13;1.40;;;24.10;99.90;;;;;;5054165;28;20635;-70
2022/07/14 07:56:59;;;;;;;4.05;1.35;;;24.20;99.90;;;;;;5052234;28;20205;-70
2022/07/14 07:59:26;;;;;;;1.80;1.50;;;24.20;99.90;;;;;;5047294;28;20233;-70
2022/07/14 08:01:53;;;;;;;2.70;1.58;;;24.20;99.60;;;;;;5048094;28;20565;-71
2022/07/14 08:04:20;;;;;;;1.60;1.50;;;24.20;99.40;;;;;;5047808;28;20203;-70
2022/07/14 08:06:47;;;;;;;2.70;1.27;;;24.30;99.50;;;;;;5049030;28;20206;-70
2022/07/14 08:09:15;;;;;;;2.00;1.33;;;24.30;98.90;;;;;;5054591;28;20367;-70
2022/07/14 08:11:42;;;;;;;1.48;1.30;;;24.20;98.60;;;;;;5053199;28;20213;-70
2022/07/14 08:16:51;;;;;;;2.78;1.33;;;24.40;98.40;;;;;;5050034;28;20198;-70
2022/07/14 08:19:18;;;;;;;7.57;1.63;;;24.50;98.20;;;;;;5052430;28;20987;-71
2022/07/14 08:21:44;;;;;;;5.65;1.80;;;24.60;98.50;;;;;;5041376;28;20218;-70
2022/07/14 08:24:11;;;;;;;2.00;1.10;;;24.70;97.70;;;;;;5051651;28;20593;-70
2022/07/14 08:26:40;;;;;;;4.95;2.38;;;24.80;97.20;;;;;;5052152;28;20237;-70
2022/07/14 08:29:06;;;;;;;2.00;1.50;;;24.90;97.00;;;;;;5051067;28;20249;-71
2022/07/14 08:31:33;;;;;;;3.25;1.35;;;24.90;96.50;;;;;;5038419;28;20221;-70
2022/07/14 08:34:00;;;;;;;2.88;2.00;;;24.90;95.70;;;;;;5050120;28;20209;-70
2022/07/14 08:36:27;;;;;;;2.42;1.48;;;25.00;95.60;;;;;;5047774;28;20214;-71
2022/07/14 08:38:54;;;;;;;2.33;1.48;;;25.00;95.50;;;;;;5050824;28;20225;-69
2022/07/14 08:41:20;;;;;;;3.45;1.70;;;25.00;95.40;;;;;;5044308;28;20237;-70
2022/07/14 08:43:51;;;;;;;1.65;1.30;;;24.90;95.10;;;;;;5048663;28;20202;-70
2022/07/14 08:46:18;;;;;;;1.90;1.05;;;24.90;94.80;;;;;;5050910;28;20229;-71
2022/07/14 08:48:47;;;;;;;1.70;1.58;;;24.80;94.60;;;;;;5043341;28;20190;-69
2022/07/14 08:51:14;;;;;;;2.97;1.48;;;24.80;94.30;;;;;;5048236;28;20210;-69
2022/07/14 08:53:44;;;;;;;3.33;1.40;;;24.70;93.90;;;;;;5048865;28;20217;-68
2022/07/14 08:56:11;;;;;;;1.70;1.23;;;24.80;93.90;;;;;;5050054;28;20682;-69
2022/07/14 08:58:39;;;;;;;2.72;1.30;;;24.80;93.80;;;;;;5052877;28;20234;-70
2022/07/14 09:01:08;;;;;;;2.55;1.42;;;24.90;93.70;;;;;;5053148;28;20222;-70
2022/07/14 09:03:35;;;;;;;3.65;1.40;;;24.90;93.40;;;;;;5051074;28;20217;-70
2022/07/14 09:06:01;;;;;;;2.03;1.60;;;25.00;93.00;;;;;;5052043;28;20209;-68
2022/07/14 09:08:28;;;;;;;1.75;1.35;;;24.90;92.50;;;;;;5055545;28;20220;-69
2022/07/14 09:10:55;;;;;;;3.38;1.67;;;24.90;92.30;;;;;;5041693;28;20245;-70
2022/07/14 09:13:24;;;;;;;4.60;1.70;;;25.00;92.20;;;;;;5052021;28;20214;-70
2022/07/14 09:16:12;;;;;;;3.25;1.30;;;25.20;91.80;;;;;;5055027;28;20237;-71
2022/07/14 09:18:41;;;;;;;3.78;1.70;;;25.20;91.50;;;;;;5054742;28;20245;-69
2022/07/14 09:21:20;;;;;;;3.38;1.70;;;25.20;91.20;;;;;;5046899;28;20257;-69
2022/07/14 09:23:47;;;;;;;2.95;1.27;;;25.30;91.20;;;;;;5054155;28;20194;-69
2022/07/14 09:26:17;;;;;;;1.40;1.30;;;25.30;91.00;;;;;;5049000;28;20245;-70
2022/07/14 09:28:46;;;;;;;2.25;1.48;;;25.30;91.00;;;;;;5054097;28;20205;-68
2022/07/14 09:31:23;;;;;;;2.28;1.88;;;25.40;90.90;;;;;;5052410;28;20202;-69
2022/07/14 09:33:53;;;;;;;2.03;1.33;;;25.40;90.30;;;;;;5054804;28;20681;-70
2022/07/14 09:36:26;;;;;;;3.40;1.40;;;25.60;89.60;;;;;;5056318;28;20213;-69
2022/07/14 09:38:57;;;;;;;3.45;1.52;;;25.70;88.80;;;;;;5056063;28;20263;-69
2022/07/14 09:41:26;;;;;;;2.75;1.40;;;25.80;88.40;;;;;;5055690;28;20232;-69
2022/07/14 09:44:13;;;;;;;2.17;1.40;;;25.80;88.70;;;;;;5055590;28;20213;-69
2022/07/14 09:46:51;;;;;;;2.90;1.75;;;25.80;87.00;;;;;;5040629;28;20253;-68
2022/07/14 09:49:21;;;;;;;2.75;2.15;;;25.90;85.20;;;;;;5047373;28;20206;-69
2022/07/14 09:51:55;;;;;;;1.83;1.33;;;25.90;83.70;;;;;;5036747;28;20198;-68
2022/07/14 09:54:42;;;;;;;2.47;1.20;;;26.10;81.10;;;;;;5046212;28;20241;-69
2022/07/14 09:57:18;;;;;;;1.58;1.40;;;26.20;78.50;;;;;;5054986;28;20552;-70
2022/07/14 09:59:46;;;;;;;3.17;1.30;;;26.20;76.90;;;;;;5055032;28;20202;-69
2022/07/14 10:02:18;;;;;;;3.38;1.17;;;26.30;75.40;;;;;;5040090;28;20201;-70
2022/07/14 10:04:47;;;;;;;1.88;1.00;;;26.40;74.70;;;;;;5055368;28;20636;-69
2022/07/14 10:07:15;;;;;;;2.13;1.00;;;26.50;73.40;;;;;;5042622;28;20221;-70
2022/07/14 10:09:47;;;;;;;3.00;1.13;;;26.50;72.30;;;;;;5049400;28;20218;-69
2022/07/14 10:12:14;;;;;;;2.50;0.95;;;26.60;70.10;;;;;;5051003;28;20248;-70
2022/07/14 10:14:43;;;;;;;3.17;1.00;;;26.80;68.00;;;;;;5054772;28;20206;-70
2022/07/14 10:17:09;;;;;;;3.65;1.77;;;26.90;64.30;;;;;;5047284;28;20222;-69
2022/07/14 10:19:37;;;;;;;1.90;0.82;;;27.00;60.60;;;;;;5047886;28;20222;-69
2022/07/14 10:22:06;;;;;;;1.13;0.80;;;27.20;58.80;;;;;;5053380;28;20213;-70
2022/07/14 10:24:35;;;;;;;1.13;0.77;;;27.30;57.90;;;;;;5052442;28;20210;-69
2022/07/14 10:27:03;;;;;;;1.83;0.73;;;27.30;58.00;;;;;;5054109;28;20539;-70
2022/07/14 10:29:30;;;;;;;3.08;1.02;;;27.40;58.40;;;;;;5054331;28;20548;-69
2022/07/14 10:32:12;;;;;;;1.77;0.82;;;27.50;58.20;;;;;;5054887;28;20654;-69
2022/07/14 10:34:46;;;;;;;4.80;0.90;;;27.50;57.90;;;;;;5049632;28;20571;-69
2022/07/14 10:37:24;;;;;;;1.80;0.90;;;27.70;57.80;;;;;;5041398;28;20197;-70
2022/07/14 10:39:58;;;;;;;0.82;0.80;;;27.70;56.70;;;;;;5049908;28;20212;-69
2022/07/14 10:42:33;;;;;;;2.78;1.08;;;27.90;56.50;;;;;;5048951;28;20205;-72
2022/07/14 10:45:02;;;;;;;4.03;1.42;;;27.90;56.30;;;;;;5046222;28;20223;-69
2022/07/14 10:47:45;;;;;;;2.03;1.30;;;28.00;56.30;;;;;;5045657;28;20242;-70
2022/07/14 10:50:13;;;;;;;1.00;0.90;;;28.10;55.90;;;;;;5041941;28;20194;-68
2022/07/14 10:52:51;;;;;;;1.75;1.20;;;28.30;56.10;;;;;;5045749;28;20210;-70
2022/07/14 10:55:20;;;;;;;4.55;1.33;;;28.40;56.50;;;;;;5045026;28;20210;-70
2022/07/14 10:58:24;;;;;;;2.70;1.45;;;28.40;57.10;;;;;;5048196;28;20241;-69
2022/07/14 11:00:58;;;;;;;1.77;1.15;;;28.40;57.80;;;;;;5051380;28;20225;-70
2022/07/14 11:03:29;;;;;;;2.58;1.20;;;28.30;56.50;;;;;;5046254;28;20745;-71
2022/07/14 11:06:17;;;;;;;4.68;1.30;;;28.30;56.70;;;;;;5053462;28;20248;-71
2022/07/14 11:09:06;;;;;;;2.40;1.40;;;28.20;56.70;;;;;;5050537;28;20300;-70
2022/07/14 11:11:33;;;;;;;2.65;1.23;;;28.00;56.80;;;;;;5043868;28;20210;-69
2022/07/14 11:14:12;;;;;;;2.22;1.23;;;28.10;57.20;;;;;;5040532;28;20262;-70
2022/07/14 11:16:58;;;;;;;2.08;1.08;;;28.10;56.90;;;;;;5052051;28;20288;-70
2022/07/14 11:19:30;;;;;;;2.10;1.00;;;28.00;56.90;;;;;;5042687;28;20675;-69
2022/07/14 11:22:14;;;;;;;2.53;0.90;;;28.10;57.30;;;;;;5051073;28;20576;-70
2022/07/14 11:24:54;;;;;;;3.70;1.15;;;28.20;57.30;;;;;;5041113;28;20236;-70
2022/07/14 11:27:36;;;;;;;1.98;1.20;;;28.30;57.00;;;;;;5048308;28;20209;-70
2022/07/14 11:30:21;;;;;;;2.65;1.30;;;28.50;57.00;;;;;;5040509;28;20291;-68
2022/07/14 11:33:08;;;;;;;2.83;1.40;;;28.50;56.00;;;;;;5052445;28;20717;-70
2022/07/14 11:38:29;;;;;;;3.75;1.40;;;28.60;56.10;;;;;;5048213;28;20388;-71
2022/07/14 11:40:58;;;;;;;3.60;1.20;;;28.80;54.90;;;;;;5040455;28;20292;-70
2022/07/14 11:43:53;;;;;;;0.98;0.88;;;28.90;54.20;;;;;;5047625;28;20290;-69
2022/07/14 11:46:21;;;;;;;4.72;1.40;;;28.90;54.80;;;;;;5047603;28;20241;-69
2022/07/14 11:48:51;;;;;;;1.13;0.90;;;28.90;54.80;;;;;;5049003;28;20358;-71
2022/07/14 11:51:24;;;;;;;2.83;1.20;;;28.90;55.40;;;;;;5042442;28;20209;-70
2022/07/14 11:53:56;;;;;;;3.42;0.95;;;28.80;55.70;;;;;;5045748;28;20191;-70
2022/07/14 11:56:25;;;;;;;3.90;1.20;;;28.70;55.80;;;;;;5043802;28;20241;-70
2022/07/14 11:58:53;;;;;;;2.08;1.20;;;28.70;56.00;;;;;;5052048;28;20213;-69
2022/07/14 12:01:20;;;;;;;3.53;1.10;;;28.70;56.20;;;;;;5051035;28;20221;-70
2022/07/14 12:03:48;;;;;;;3.05;1.10;;;28.80;55.80;;;;;;5052508;28;20209;-71
2022/07/14 12:06:15;;;;;;;2.95;1.08;;;28.80;55.80;;;;;;5052408;28;20301;-68
2022/07/14 12:08:44;;;;;;;1.98;1.10;;;28.90;55.40;;;;;;5051733;28;20260;-70
2022/07/14 12:11:13;;;;;;;1.20;1.00;;;29.00;55.50;;;;;;5052630;28;20216;-71
2022/07/14 12:13:50;;;;;;;6.07;1.20;;;28.90;55.00;;;;;;5052006;28;20217;-70
2022/07/14 12:16:17;;;;;;;1.80;1.02;;;28.90;54.60;;;;;;5047974;28;20209;-70
2022/07/14 12:18:45;;;;;;;1.38;0.82;;;28.90;54.30;;;;;;5047356;28;20206;-69
2022/07/14 12:21:12;;;;;;;1.95;1.20;;;28.80;53.20;;;;;;5048821;28;20226;-69
2022/07/14 12:23:52;;;;;;;2.80;1.17;;;28.70;52.20;;;;;;5044356;28;20280;-71
2022/07/14 12:26:20;;;;;;;3.20;1.15;;;28.60;51.80;;;;;;5048866;28;20221;-68
2022/07/14 12:28:50;;;;;;;2.45;1.08;;;28.50;52.20;;;;;;5050783;28;20213;-68
2022/07/14 12:31:17;;;;;;;1.60;1.10;;;28.60;52.20;;;;;;5038997;28;20213;-70
2022/07/14 12:33:46;;;;;;;1.45;1.00;;;28.60;52.10;;;;;;5048263;28;20229;-71
2022/07/14 12:36:15;;;;;;;1.33;1.10;;;28.70;51.70;;;;;;5052732;28;20636;-69
2022/07/14 12:38:42;;;;;;;2.33;0.88;;;28.80;51.00;;;;;;5042989;28;20279;-68
2022/07/14 12:41:10;;;;;;;3.08;1.20;;;28.90;50.70;;;;;;5049409;28;20217;-69
2022/07/14 12:43:40;;;;;;;2.53;1.35;;;29.00;50.30;;;;;;5053093;28;20202;-68
2022/07/14 12:46:10;;;;;;;1.98;1.08;;;29.00;49.80;;;;;;5052683;28;20229;-69
2022/07/14 12:48:56;;;;;;;3.85;0.80;;;29.00;49.60;;;;;;5049186;28;20211;-68
2022/07/14 12:51:26;;;;;;;3.97;0.90;;;29.00;49.80;;;;;;5055827;28;20205;-69
2022/07/14 12:53:57;;;;;;;0.80;0.80;;;29.00;49.30;;;;;;5052359;28;20683;-70
2022/07/14 12:56:24;;;;;;;2.33;0.80;;;29.00;48.60;;;;;;5055546;28;20323;-67
2022/07/14 12:58:51;;;;;;;2.92;1.05;;;28.90;48.70;;;;;;5053470;28;20209;-68
2022/07/14 13:01:19;;;;;;;2.35;0.73;;;28.80;48.70;;;;;;5045126;28;20232;-66
2022/07/14 13:03:54;;;;;;;1.50;0.90;;;28.80;48.90;;;;;;5051344;28;20208;-67
2022/07/14 13:06:21;;;;;;;3.92;1.17;;;28.80;49.10;;;;;;5049749;28;20205;-69
2022/07/14 13:08:48;;;;;;;4.10;1.17;;;28.80;49.30;;;;;;5053803;28;20451;-67